BADALONA



Badalona more information Badalona


Meteosat more information blitzortung!


Radar lluvias  rain snow radar


Visita nuestra red de sitios de meteo:

Template documentation
and downloads

And another site



No requiere especial atención con respecto al clima.    No hay Alarmas

Informes METAR proximidad

   
LEBL - Barcelona Airpor, Spain
Distancia hasta la estación: SSE 30 km
Actualización: 17-12-2017 16:30
Despejado  
Despejado  
   Viento: WNW 18.5 km/h
Viento: WNW 18.5 km/h
Temperatura: 13°C
Punto de rocío: -6°C
Humedad: 26%
Baromètro: 1026 hPa
Visibilidad: More than 10 km
detalles de la nube: Despejado m
LEBL 171530Z 29010KT 260V330 CAVOK 13/M06 Q1026 NOSIG
LELL - Sabadell, Spain
Distancia hasta la estación: WNW 14 km
Actualización: 17-12-2017 16:30
Nubes dispersas  
Nubes dispersas  
   Viento: West 13 km/h
Viento: West 13 km/h
Temperatura: 12°C
Punto de rocío: -4°C
Humedad: 33%
Baromètro: 1025 hPa
Nublado: Few Clouds
Visibilidad: More than 10 km
detalles de la nube: Nubes dispersas 914.4 m
LELL 171530Z 27007KT 240V300 9999 FEW030 12/M04 Q1025
LEGE - Girona/Costa Bra, Spain
Distancia hasta la estación: NE 65 km
Actualización: 17-12-2017 16:30
Despejado  
Despejado  
   Viento: SSW 11.1 km/h
Viento: SSW 11.1 km/h
Temperatura: 11°C
Punto de rocío: -1°C
Humedad: 44%
Baromètro: 1026 hPa
Visibilidad: More than 10 km
detalles de la nube: Despejado m
LEGE 171530Z 20006KT CAVOK 11/M01 Q1026
LERS - Reus (civ/Mil), Spain
Distancia hasta la estación: WSW 96 km
Actualización: 17-12-2017 16:30
Despejado  
Despejado  
   Viento: West 22.2 km/h
Viento: West 22.2 km/h
Temperatura: 12°C
Punto de rocío: -2°C
Humedad: 38%
Baromètro: 1027 hPa
Visibilidad: More than 10 km
detalles de la nube: Despejado m
LERS 171530Z 26012KT CAVOK 12/M02 Q1027
LESU - Pirineus/La Seu, Spain
Distancia hasta la estación: NW 121 km
Actualización: 17-12-2017 16:30
Parcialmente nublado  
Parcialmente nublado  
   Viento: NW 22.2 km/h
Viento: NW 22.2 km/h
Temperatura: 7°C
Térmica: 3°C
Punto de rocío: -5°C
Humedad: 42%
Baromètro: 1025 hPa
Nublado: Mostly Cloudy
Visibilidad: More than 10 km
detalles de la nube: Parcialmente nublado 1981.2 m
LESU 171530Z 31012KT 9999 BKN065 07/M05 Q1025
LEDA - Lleida/Alguaire, Spain
Distancia hasta la estación: WNW 146 km
Actualización: 17-12-2017 16:30
Nubes dispersas  
Nubes dispersas  
   Viento: West 5.6 km/h
Viento: West 5.6 km/h
Temperatura: 8°C
Térmica: 7°C
Punto de rocío: -1°C
Humedad: 53%
Baromètro: 1027 hPa
Nublado: Few Clouds
Visibilidad: More than 10 km
detalles de la nube: Nubes dispersas 1219.2 m
LEDA 171530Z 26003KT 9999 FEW040 08/M01 Q1027
LFMP - Perpignan/Rivesa, France
Distancia hasta la estación: NNE 150 km
Actualización: 17-12-2017 16:30
Nublado  
Nublado  
   Viento: NW 22.2 km/h
Viento: NW 22.2 km/h
Temperatura: 11°C
Punto de rocío: -1°C
Humedad: 44%
Baromètro: 1027 hPa
Nublado: Overcast
Visibilidad: More than 10 km
detalles de la nube: Nublado 1493.5 m
LFMP 171530Z AUTO 32012KT 290V360 9999 OVC049 11/M01 Q1027 TEMPO 32022G35KT
LEPA - Palma De Mallorca, Spain
Distancia hasta la estación: S 216 km
Actualización: 17-12-2017 16:30
Nubes dispersas  
Nubes dispersas  
   Viento: WNW 7.4 km/h
Viento: WNW 7.4 km/h
Temperatura: 13°C
Punto de rocío: 0°C
Humedad: 41%
Baromètro: 1027 hPa
Nublado: Few Clouds
Visibilidad: More than 10 km
detalles de la nube: Nubes dispersas 609.6 m
LEPA 171530Z 30004KT 260V340 9999 FEW020 13/00 Q1027 NOSIG
 

Guión original por  Saratoga-weather.org Adaptado para la plantilla por  Weerstation Leuven

Usted encontrará nuestra información del tiempo también en:

UK Metoffice

European Weather Network

WeatherCloud

Weather Underground

Iberian Peninsula Weather Network

AWEKAS

Citizen Weather Observer Program (CWOP)

HAMweather, WeatherForYou, PWS Weather

Equipo utilizado:

Weather-station
Davis Vantage Vue

Weather-program
Weather Display

Weather-server
My Computer

Proveedor
My provider

Davis Vantage Vue

Weather Display

My Computer

My provider